Pagrindinis puslapis
METAR-TAF:

METAR-TAF

Oro uostai :

Gdanskas, Lenkija

platuma: 54-23N, ilguma: 018-28E, Aukštis: 135 m

Dabartinis oras

Ataskaita buvo paskelbta 15 minutes, ne 18:30 UTC
Vėjas 4 kt iš Pietų
Temperatūra 19°C
Drėgmė 64%
Slėgis 1005 hPa
Matomumas 10 km arba daugiau
nėra debesų žemiau 1500 m ir nėra kamuolinių lietaus debesų

METAR: EPGD 231830Z 17004KT CAVOK 19/12 Q1005

Laikas: 20:45 (18:45 UTC)

Prognozė

Ataskaita buvo paskelbta 1 valandą ir 15 minutes, ne 17:30 UTC
Prognozė galioja nuo 23 metu 18 UTC su 24 metu 18 UTC
Vėjas 3 kt iš Pietų
Matomumas 10 km arba daugiau
nėra debesų žemiau 1500 m ir nėra kamuolinių lietaus debesų
Tikimybė 30% :
Laikinai
nuo 24 metu 02 UTC su 24 metu 06 UTC
Matomumas: 3000 m
rūkana
Tikimybė 40% :
Laikinai
nuo 24 metu 09 UTC su 24 metu 18 UTC
Su prošvaistėmis ne aukštis 5000 ft, Liūtiniai kamuoliniai debesys.
lietus

TAF: EPGD 231730Z 2318/2418 18003KT CAVOK PROB30 TEMPO 2402/2406 3000 BR PROB40 TEMPO 2409/2418 -SHRA BKN050CB

Orai ataskaitas ir orų prognozės (METAR, TAF).

turimą stotys yra geltonos ir raudonos taškus žemėlapyje.

Perkelti pele per norėdami pamatyti stoties vardą.

Tada spustelėkite, norėdami matyti oro stebėjimo ir prognozės.

Norėdami pakeisti žemėlapį: spustelėkite ant žalios mygtukų su juodo kryžiaus žemyn,; žalią mygtuką su brūkšneliu, jei norite nutolinti; arba žalių rodyklių gretimoms žemėlapius.


METAR-TAF: